This is the latest recevied weather packets stored in our database for station/object W9LRT-WX. If no packets are shown the sender has not sent any weather packets the latest 10 day(s).
| Time | Temp. | Humidity | Pressure | Rain* | Wind** | Luminosity | Snow |
|---|---|---|---|---|---|---|---|
| 1778198898 | 11.67° C | 64% | 1009.6 hPa | 0 mm | - | 14 W/m² | - |
| 1778197991 | 11.67° C | 63% | 1009.8 hPa | 0 mm | - | 16 W/m² | - |
| 1778197089 | 12.22° C | 63% | 1009.9 hPa | 0 mm | - | 32 W/m² | - |
| 1778196190 | 12.22° C | 62% | 1010.2 hPa | 0 mm | - | 111 W/m² | - |
| 1778195290 | 11.67° C | 63% | 1010.5 hPa | 0 mm | - | 69 W/m² | - |
| 1778194389 | 11.67° C | 62% | 1010.6 hPa | 0 mm | - | 35 W/m² | - |
| 1778193489 | 11.67° C | 63% | 1010.5 hPa | 0 mm | - | 65 W/m² | - |
| 1778192585 | 11.67° C | 62% | 1010.4 hPa | 0 mm | - | 192 W/m² | - |
| 1778191685 | 11.67° C | 62% | 1010.5 hPa | 0 mm | - | 362 W/m² | - |
| 1778190786 | 12.22° C | 62% | 1010.6 hPa | 0 mm | - | 320 W/m² | - |
| 1778189885 | 11.11° C | 67% | 1010.7 hPa | 0 mm | - | 295 W/m² | - |
| 1778188985 | 11.11° C | 67% | 1010.7 hPa | 0 mm | - | 120 W/m² | - |
| 1778188083 | 11.67° C | 63% | 1010.9 hPa | 0 mm | - | 70 W/m² | - |
| 1778187179 | 12.22° C | 55% | 1010.9 hPa | 0 mm | - | 221 W/m² | - |
| 1778186279 | 13.33° C | 50% | 1010.7 hPa | 0 mm | - | 104 W/m² | - |
| 1778185379 | 13.33° C | 48% | 1010.9 hPa | 0 mm | - | 137 W/m² | - |
| 1778184480 | 13.33° C | 47% | 1011.1 hPa | 0 mm | - | 229 W/m² | - |
| 1778183579 | 13.33° C | 46% | 1011.3 hPa | 0 mm | - | 311 W/m² | - |
| 1778182679 | 13.33° C | 45% | 1011.4 hPa | 0 mm | - | 455 W/m² | - |
| 1778181780 | 13.89° C | 43% | 1011.4 hPa | 0 mm | - | 213 W/m² | - |
| 1778180879 | 14.44° C | 43% | 1011.4 hPa | 0 mm | - | 425 W/m² | - |
| 1778179981 | 13.89° C | 43% | 1011.6 hPa | 0 mm | - | 747 W/m² | - |
| 1778179081 | 14.44° C | 43% | 1011.8 hPa | 0 mm | - | 810 W/m² | - |
| 1778178179 | 13.33° C | 46% | 1012 hPa | 0 mm | - | 905 W/m² | - |
| 1778177279 | 13.33° C | 44% | 1011.9 hPa | 0 mm | - | 919 W/m² | - |
* Rain latest hour (hover to see other rain measurements)
** Current wind speed in m/s (hover to see current wind gust speed)